Terminal Aerodrome Forecast
Issued by NWS Brownsville, TX

Home | Current Version | Previous Version | Text Only | Print | Product List | Glossary On
Versions: 1 2 3 4 5 6 7 8 9 10 11 12 13
115
FTUS44 KBRO 262339
TAFHRL
TAF
KHRL 262339Z 2700/2724 15015G24KT P6SM FEW045 BKN250
     FM270100 14014KT P6SM FEW020 SCT100 BKN250
     FM270600 16006KT P6SM FEW020 SCT250
     FM271500 16015G20KT P6SM SCT040 BKN250=

USA.gov is the U.S. government's official web portal to all federal, state and local government web resources and services.